Flight Track Log - Related Links

Times and Time Zones

All times are in EDT time to prevent confusion due to time zone crossing. See the DAL3672 flight status page for this flight to view local times or setup timezone preferences in your user account.

Time Position Orientation Groundspeed Altitude Reporting Facility
EDT Latitude Longitude Course Direction KTS MPH feet Rate Location/Type
Sat 10:22:30 AM 42.1994 -83.3581 90° East 160 184 1,400  Level Cleveland Center
Sat 10:23:00 AM 42.1767 -83.3572 178° South 173 199 2,500 2,041 Climbing Cleveland Center
Sat 10:24:07 AM 42.1119 -83.3542 178° South 245 282 4,700 2,391 Climbing Cleveland Center
Sat 10:25:00 AM 42.2820 -82.9010 74° East  Level FlightAware Approximate
Sat 10:25:08 AM 42.0656 -83.2936 136° Southeast 275 316 7,600  Level Cleveland Center
Sat 10:25:33 AM 42.0519 -83.2453 111° Southeast 273 314 8,700 1,694 Climbing Cleveland Center
Sat 10:26:00 AM 42.3104 -82.7496 78° East  Level FlightAware Approximate
Sat 10:26:33 AM 42.0872 -83.1628 60° Northeast 282 325 10,000  Level Cleveland Center
Sat 10:27:00 AM 42.3333 -82.5963 90° East  Level FlightAware Approximate
Sat 10:27:33 AM 42.1600 -83.0733 42° Northeast 277 319 11,500  Level Cleveland Center
Sat 10:28:33 AM 42.2044 -82.9433 65° Northeast 328 377 13,500 2,000 Climbing Cleveland Center
Sat 10:29:33 AM 42.2489 -82.8103 66° East 368 423 15,500 1,850 Climbing Cleveland Center
Sat 10:30:33 AM 42.2931 -82.6772 66° East 380 437 17,200 1,450 Climbing Cleveland Center
Sat 10:31:33 AM 42.3372 -82.5439 66° East 385 443 18,400 1,200 Climbing Cleveland Center
Sat 10:32:33 AM 42.3686 -82.4014 73° East 390 449 19,600 1,150 Climbing Cleveland Center
Sat 10:33:33 AM 42.3606 -82.2467 94° East 390 449 20,700 1,050 Climbing Cleveland Center
Sat 10:34:33 AM 42.3522 -82.0919 94° East 400 460 21,700 1,000 Climbing Cleveland Center
Sat 10:35:33 AM 42.3439 -81.9317 94° East 422 486 22,700 1,000 Climbing Cleveland Center
Sat 10:36:33 AM 42.3394 -81.7686 92° East 430 495 23,700 950 Climbing Cleveland Center
Sat 10:37:33 AM 42.3306 -81.6028 94° East 430 495 24,600 900 Climbing Cleveland Center
Sat 10:38:33 AM 42.3236 -81.4397 93° East 435 501 25,500 950 Climbing Cleveland Center
Sat 10:39:33 AM 42.3164 -81.2739 93° East 435 501 26,500 900 Climbing Cleveland Center
Sat 10:40:33 AM 42.3089 -81.1081 93° East 440 506 27,300 900 Climbing Cleveland Center
Sat 10:41:33 AM 42.2992 -80.9622 95° East 440 506 28,300 950 Climbing Cleveland Center
Sat 10:42:33 AM 42.2911 -80.7936 94° East 440 506 29,200 950 Climbing Cleveland Center
Sat 10:43:33 AM 42.2808 -80.6308 95° East 440 506 30,200 900 Climbing Cleveland Center
Sat 10:44:33 AM 42.2808 -80.4708 90° East 440 506 31,000 400 Climbing Cleveland Center
Sat 10:45:33 AM 42.2972 -80.3136 82° East 434 499 31,000  Level Cleveland Center
Sat 10:46:33 AM 42.3136 -80.1453 82° East 444 511 31,000  Level Cleveland Center
Sat 10:47:33 AM 42.3336 -79.9597 82° East 450 518 31,000  Level Cleveland Center
Sat 10:48:33 AM 42.3492 -79.7853 83° East 455 524 31,000  Level Cleveland Center
Sat 10:49:33 AM 42.3664 -79.6108 82° East 465 535 31,000  Level Cleveland Center
Sat 10:50:33 AM 42.3814 -79.4308 84° East 474 545 31,000  Level Cleveland Center
Sat 10:51:33 AM 42.3983 -79.2533 83° East 474 545 31,000  Level Cleveland Center
Sat 10:52:33 AM 42.4150 -79.0703 83° East 479 551 31,000  Level Cleveland Center
Sat 10:53:33 AM 42.4292 -78.8925 84° East 484 557 31,000  Level Cleveland Center
Sat 10:54:33 AM 42.4433 -78.7319 83° East 484 557 31,000  Level Cleveland Center
Sat 10:55:33 AM 42.4589 -78.5511 83° East 484 557 31,000  Level Cleveland Center
Sat 10:56:33 AM 42.4725 -78.3733 84° East 484 557 31,000  Level Cleveland Center
Sat 10:57:33 AM 42.4875 -78.1928 84° East 484 557 31,000  Level Cleveland Center
Sat 10:58:33 AM 42.5006 -78.0147 84° East 484 557 31,000  Level Cleveland Center
Sat 10:59:33 AM 42.5147 -77.8169 84° East 484 557 31,000  Level Cleveland Center
Sat 11:00:33 AM 42.5311 -77.6386 83° East 479 551 31,000  Level Cleveland Center
Sat 11:02:16 AM 42.5506 -77.3506 85° East 485 558 31,000  Level Boston Center
Sat 11:03:16 AM 42.5622 -77.1767 85° East 466 536 31,000  Level Boston Center
Sat 11:04:28 AM 42.5756 -77.0028 84° East 459 528 31,000  Level Boston Center
Sat 11:05:28 AM 42.5900 -76.7950 85° East 459 528 31,000  Level Boston Center
Sat 11:06:28 AM 42.6006 -76.6208 85° East 459 528 31,000  Level Boston Center
Sat 11:07:28 AM 42.6111 -76.4467 85° East 459 528 31,000 -250 Level Boston Center
Sat 11:08:28 AM 42.6214 -76.2722 85° East 459 528 30,500 -800 Descending Boston Center
Sat 11:09:28 AM 42.6333 -76.1008 85° East 459 528 29,400 -750 Descending Boston Center
Sat 11:10:28 AM 42.6428 -75.9261 86° East 459 528 29,000 -200 Descending Boston Center
Sat 11:11:28 AM 42.6522 -75.7517 86° East 459 528 29,000  Level Boston Center
Sat 11:12:28 AM 42.6614 -75.5742 86° East 459 528 29,000  Level Boston Center
Sat 11:13:28 AM 42.6725 -75.3997 85° East 459 528 29,000  Level Boston Center
Sat 11:14:28 AM 42.6811 -75.2250 86° East 459 528 29,000  Level Boston Center
Sat 11:15:28 AM 42.6917 -75.0447 85° East 459 528 29,000  Level Boston Center
Sat 11:16:28 AM 42.6997 -74.8669 86° East 464 534 29,000  Level Boston Center
Sat 11:17:28 AM 42.7094 -74.6922 86° East 464 534 29,000  Level Boston Center
Sat 11:18:28 AM 42.7169 -74.5144 87° East 464 534 29,000  Level Boston Center
Sat 11:19:28 AM 42.7244 -74.3336 87° East 464 534 29,000 -500 Level Boston Center
Sat 11:20:28 AM 42.7333 -74.1617 86° East 464 534 28,000 -900 Descending Boston Center
Sat 11:21:28 AM 42.7394 -74.0203 87° East 464 534 27,200 -950 Descending Boston Center
Sat 11:22:28 AM 42.7464 -73.8083 87° East 464 534 26,100 -1,150 Descending Boston Center
Sat 11:23:28 AM 42.7569 -73.6164 86° East 459 528 24,900 -1,100 Descending Boston Center
Sat 11:24:28 AM 42.7628 -73.4439 87° East 459 528 23,900 -1,000 Descending Boston Center
Sat 11:25:28 AM 42.7683 -73.2658 88° East 459 528 22,900 -1,000 Descending Boston Center
Sat 11:26:28 AM 42.7758 -73.0878 87° East 464 534 21,900 -1,100 Descending Boston Center
Sat 11:27:28 AM 42.7786 -72.9069 89° East 470 541 20,700 -1,600 Descending Boston Center
Sat 11:28:28 AM 42.7833 -72.7542 88° East 447 514 18,700 -1,850 Descending Boston Center
Sat 11:29:28 AM 42.7881 -72.6042 87° East 412 474 17,000 -1,850 Descending Boston Center
Sat 11:30:28 AM 42.7922 -72.4600 88° East 394 453 15,000 -2,000 Descending Boston Center
Sat 11:31:28 AM 42.7942 -72.3156 89° East 377 434 13,000 -1,800 Descending Boston Center
Sat 11:32:28 AM 42.8106 -72.1883 80° East 357 411 11,400 -1,450 Descending Boston Center
Sat 11:33:28 AM 42.8356 -72.0919 70° East 319 367 10,100 -1,500 Descending Boston Center
Sat 11:34:28 AM 42.8350 -71.9758 90° East 282 325 8,400 -1,650 Descending Boston Center
Sat 11:35:28 AM 42.8283 -71.8853 96° East 269 310 6,800 -1,750 Descending Boston Center
Sat 11:36:28 AM 42.8217 -71.7750 95° East 269 310 4,900 -1,550 Descending Boston Center
Sat 11:37:28 AM 42.8147 -71.6900 96° East 264 304 3,700 -950 Descending Boston Center
Sat 11:38:28 AM 42.8078 -71.5883 95° East 253 291 3,000 -350 Descending Boston Center
Sat 11:39:28 AM 42.8008 -71.4950 96° East 253 291 3,000  Level Boston Center
Sat 11:40:28 AM 42.8064 -71.4186 84° East 224 258 3,000 -500 Level Boston Center
Sat 11:41:28 AM 42.8394 -71.3783 42° Northeast 164 189 2,000 -1,000 Descending Boston Center

Login

Don't have an account? Register now (free) for customized features, flight alerts, and more!